Larnaca, Cyprus

4:33 PM EEST on July 27, 2016 (GMT +0300)
Posedonos | | Change Station

Elev 13 ft 34.96 °N, 33.66 °E | Updated 2 minutes ago

Partly Cloudy
Partly Cloudy
89.6 °F
Feels Like 107 °F
N
1.9
Wind Variable Wind from SSE
Gusts 5.0 mph

Today
High -- | Low -- °F
--% Chance of Precip.
Yesterday
High -- | Low -- °F
Precip. -- in
Pressure 29.68 in
Visibility 6.2 miles
Clouds Few 3000 ft
Heat Index 107 °F
Dew Point 80 °F
Humidity 73%
Rainfall 0.31 in
Snow Depth Not available.
5:51 AM 7:51 PM
Last Quarter, 43% visible
METAR LCLK 271330Z 22015KT 9999 FEW030 33/20 Q1005 NOSIG
Pressure 29.68 in
Visibility 6.2 miles
Clouds Few 3000 ft
Heat Index 107 °F
Dew Point 80 °F
Humidity 73%
Rainfall 0.31 in
Snow Depth Not available.
5:51 AM 7:51 PM
Last Quarter, 43% visible
METAR LCLK 271330Z 22015KT 9999 FEW030 33/20 Q1005 NOSIG

10-Day Weather Forecast

×

Almanac

Astronomy

Jul. 27, 2016 Rise Set
Actual Time
Civil Twilight
Nautical Twilight
Astronomical Twilight
Moon
Length of Visible Light
Length of Day
Tomorrow will be .
, % of the Moon is Illuminated

Today's Extremes

Country Highs Country Lows

Community

WunderPhotos

Upload Photos

1,927,844 photos uploaded!

WunderBlog® & News

Nearby

Air Quality

  Air Quality AQ Index Pollutant
Not available.

Snow Depth

Station Depth Elevation

Earthquake Activity

City Distance Mag. Time & Date
Minimum magnitude displayed is 2.5.

Coastal Water Temperatures

Place Temperature

Stations

Nearby Weather Stations

Station Location Temp. Windchill Dew Point Humidity Wind Precip. Elev Updated Type